Time;durP1;ratioP1;P1;durP2;ratioP2;P2;SDS_P1;SDS_P2;PMS_P1;PMS_P2;Temp;Humidity;BMP_temperature;BMP_pressure;BME280_temperature;BME280_humidity;BME280_pressure;Samples;Min_cycle;Max_cycle;Signal;HPM_P1;HPM_P2
2022/11/06 00:01:10;;;;;;;25.88;12.00;;;;;;;8.10;82.56;100427.84;4986860;28;20072;-90
2022/11/06 00:03:38;;;;;;;20.10;12.15;;;;;;;8.07;82.81;100419.28;5006311;28;20486;-90
2022/11/06 00:08:59;;;;;;;;;;;;;;;7.80;83.09;100420.19;4909370;28;20045;-90
2022/11/06 00:11:26;;;;;;;28.58;13.57;;;;;;;8.02;82.86;100419.59;4956537;28;20306;-90
2022/11/06 00:13:52;;;;;;;28.05;14.30;;;;;;;7.96;83.03;100415.56;4956896;28;20544;-89
2022/11/06 00:16:19;;;;;;;38.40;15.20;;;;;;;7.99;83.33;100417.16;4957936;28;20049;-90
2022/11/06 00:18:47;;;;;;;34.05;15.18;;;;;;;7.96;83.52;100417.34;4942000;28;20046;-90
2022/11/06 00:21:18;;;;;;;28.98;14.05;;;;;;;7.99;83.41;100423.28;4937433;28;20054;-90
2022/11/06 00:23:46;;;;;;;28.25;13.43;;;;;;;7.98;83.52;100423.38;4985574;28;20490;-89
2022/11/06 00:26:16;;;;;;;29.77;14.48;;;;;;;7.94;83.46;100430.69;4951913;28;20046;-90
2022/11/06 00:28:43;;;;;;;28.95;14.32;;;;;;;7.93;83.87;100428.13;4950705;28;20458;-89
2022/11/06 00:31:13;;;;;;;33.97;14.02;;;;;;;7.86;83.97;100434.78;4971263;28;20103;-91
2022/11/06 00:33:41;;;;;;;24.38;12.77;;;;;;;7.88;84.02;100425.78;4969307;28;20050;-89
2022/11/06 00:36:10;;;;;;;32.80;14.15;;;;;;;7.85;83.30;100431.28;4938476;28;20050;-90
2022/11/06 00:38:37;;;;;;;25.85;13.68;;;;;;;7.90;83.36;100429.19;4968468;28;20043;-90
2022/11/06 00:41:06;;;;;;;30.55;14.07;;;;;;;7.90;83.07;100431.00;4950649;28;20051;-90
2022/11/06 00:43:34;;;;;;;25.60;13.05;;;;;;;7.86;82.73;100418.91;4959926;28;20054;-90
2022/11/06 00:46:02;;;;;;;31.75;13.90;;;;;;;7.90;82.81;100428.34;4974207;28;20393;-90
2022/11/06 00:48:29;;;;;;;30.15;14.10;;;;;;;7.88;83.15;100428.44;4963742;28;20723;-91
2022/11/06 00:51:07;;;;;;;23.80;12.32;;;;;;;7.74;82.93;100425.91;4937932;28;20050;-89
2022/11/06 00:53:34;;;;;;;29.85;13.95;;;;;;;7.83;83.53;100417.31;4942512;28;20494;-89
2022/11/06 00:56:14;;;;;;;29.25;14.57;;;;;;;7.80;83.69;100425.47;4917490;28;20093;-91
2022/11/06 00:58:41;;;;;;;24.58;14.65;;;;;;;7.82;84.02;100420.94;4957519;28;20045;-90
2022/11/06 01:01:18;;;;;;;33.25;14.55;;;;;;;7.78;84.26;100424.72;4972060;28;20126;-90
2022/11/06 01:03:47;;;;;;;29.52;15.00;;;;;;;7.87;84.11;100413.53;4967828;28;20042;-89
2022/11/06 01:06:16;;;;;;;28.25;14.38;;;;;;;7.92;83.95;100405.31;4952933;28;20502;-90
2022/11/06 01:08:44;;;;;;;27.50;14.27;;;;;;;7.90;84.53;100410.69;4969888;28;20438;-90
2022/11/06 01:11:14;;;;;;;30.33;13.55;;;;;;;7.83;84.86;100394.38;4951994;28;20454;-90
2022/11/06 01:13:43;;;;;;;26.15;14.50;;;;;;;7.85;85.08;100399.56;4959369;28;20134;-90
2022/11/06 01:16:12;;;;;;;27.80;14.15;;;;;;;7.82;85.27;100397.97;4973664;28;20045;-91
2022/11/06 01:18:40;;;;;;;27.38;13.05;;;;;;;7.88;85.01;100401.16;4952239;28;20061;-89
2022/11/06 01:21:13;;;;;;;25.27;14.23;;;;;;;7.89;84.93;100403.72;4968732;28;20130;-90
2022/11/06 01:23:40;;;;;;;25.67;13.13;;;;;;;7.88;85.56;100398.50;4953082;28;20054;-89
2022/11/06 01:26:08;;;;;;;26.77;13.98;;;;;;;7.86;84.87;100408.34;4969835;28;20494;-89
2022/11/06 01:28:35;;;;;;;24.73;13.55;;;;;;;7.82;85.45;100399.78;4985940;28;20125;-88
2022/11/06 01:31:12;;;;;;;28.08;13.38;;;;;;;7.78;85.36;100404.41;4968478;28;20132;-90
2022/11/06 01:33:39;;;;;;;21.85;14.02;;;;;;;7.78;85.54;100401.78;4983840;28;20719;-89
2022/11/06 01:36:08;;;;;;;21.95;12.35;;;;;;;7.66;84.73;100399.97;4972547;28;20053;-89
2022/11/06 01:38:35;;;;;;;23.55;13.68;;;;;;;7.75;84.84;100396.69;4954442;28;20046;-88
2022/11/06 01:41:02;;;;;;;23.00;13.68;;;;;;;7.79;84.60;100400.00;4979550;28;20042;-89
2022/11/06 01:43:53;;;;;;;23.23;12.70;;;;;;;7.70;84.77;100405.91;4983670;28;20521;-89
2022/11/06 01:46:22;;;;;;;23.55;13.05;;;;;;;7.77;84.89;100397.44;4929489;28;20662;-89
2022/11/06 01:49:00;;;;;;;19.83;12.52;;;;;;;7.73;84.43;100388.03;4972748;28;20125;-89
2022/11/06 01:51:28;;;;;;;20.83;12.88;;;;;;;7.75;84.20;100388.75;4956966;28;20042;-89
2022/11/06 01:53:56;;;;;;;18.33;11.15;;;;;;;7.76;83.78;100385.19;4970336;28;20105;-89
2022/11/06 01:56:23;;;;;;;18.77;11.27;;;;;;;7.74;83.66;100387.09;4955672;28;20042;-89
2022/11/06 01:58:52;;;;;;;24.15;12.50;;;;;;;7.67;83.52;100379.69;4950102;28;20051;-89
2022/11/06 02:01:19;;;;;;;21.08;11.80;;;;;;;7.66;83.57;100381.47;4966520;28;20047;-89
2022/11/06 02:03:57;;;;;;;20.60;12.50;;;;;;;7.54;83.17;100384.94;4991463;28;20406;-88
2022/11/06 02:06:24;;;;;;;23.85;11.70;;;;;;;7.61;83.35;100387.06;4963284;28;20081;-89
2022/11/06 02:08:51;;;;;;;19.17;11.10;;;;;;;7.51;83.27;100383.34;4953374;28;20073;-89
2022/11/06 02:11:18;;;;;;;17.05;11.48;;;;;;;7.50;83.22;100383.44;4954350;28;20038;-89
2022/11/06 02:13:57;;;;;;;20.17;11.27;;;;;;;7.46;81.99;100369.59;4983212;28;20061;-90
2022/11/06 02:16:33;;;;;;;17.85;11.50;;;;;;;7.49;81.26;100355.34;4983740;28;20051;-90
2022/11/06 02:19:33;;;;;;;17.23;10.55;;;;;;;7.36;81.44;100350.88;4968391;28;20046;-89
2022/11/06 02:22:12;;;;;;;18.75;11.55;;;;;;;7.42;82.06;100340.84;4910241;28;20116;-90
2022/11/06 02:25:03;;;;;;;19.98;12.20;;;;;;;7.31;82.68;100331.84;4955563;28;20100;-89
2022/11/06 02:27:31;;;;;;;22.77;13.85;;;;;;;7.48;83.32;100329.84;4947209;28;20050;-89
2022/11/06 02:30:10;;;;;;;20.42;12.35;;;;;;;7.45;83.21;100332.69;4952208;28;20379;-90
2022/11/06 02:32:48;;;;;;;24.33;13.57;;;;;;;7.39;83.67;100321.59;4963792;28;20402;-90
2022/11/06 02:35:18;;;;;;;27.48;12.98;;;;;;;7.45;83.92;100324.78;4940692;28;20073;-89
2022/11/06 02:37:46;;;;;;;20.55;12.60;;;;;;;7.48;83.89;100329.84;4962610;28;20051;-89
2022/11/06 02:40:13;;;;;;;19.40;11.85;;;;;;;7.48;84.50;100338.63;4979395;28;20046;-89
2022/11/06 02:42:43;;;;;;;22.90;13.70;;;;;;;7.49;84.31;100336.84;4988320;28;20049;-89
2022/11/06 02:45:12;;;;;;;24.73;12.80;;;;;;;7.38;85.14;100332.28;4971975;28;20053;-89
2022/11/06 02:47:39;;;;;;;22.30;12.98;;;;;;;7.45;85.21;100335.34;4983706;28;20042;-89
2022/11/06 02:50:10;;;;;;;22.85;13.57;;;;;;;7.42;85.30;100328.47;4980231;28;20054;-90
2022/11/06 02:53:01;;;;;;;20.00;12.55;;;;;;;7.26;85.83;100333.94;4987770;28;20526;-89
2022/11/06 02:55:39;;;;;;;18.33;12.05;;;;;;;7.29;85.92;100332.88;4947961;28;20042;-89
2022/11/06 02:58:32;;;;;;;23.63;12.98;;;;;;;7.39;85.40;100329.53;4974532;28;20486;-90
2022/11/06 03:01:02;;;;;;;23.65;12.07;;;;;;;7.43;85.56;100327.53;4968809;28;20112;-90
2022/11/06 03:03:31;;;;;;;35.70;12.43;;;;;;;7.45;85.40;100317.69;4970924;28;20474;-89
2022/11/06 03:06:01;;;;;;;25.08;12.55;;;;;;;7.33;85.73;100321.19;4969507;28;20049;-90
2022/11/06 03:08:51;;;;;;;24.70;12.60;;;;;;;7.34;85.50;100317.56;4969110;28;20421;-90
2022/11/06 03:11:24;;;;;;;24.10;11.95;;;;;;;7.41;84.60;100312.75;4931759;28;20047;-90
2022/11/06 03:14:12;;;;;;;30.80;12.43;;;;;;;7.27;83.07;100322.41;4956556;28;20043;-89
2022/11/06 03:17:00;;;;;;;39.67;12.77;;;;;;;7.08;82.06;100321.97;4950900;28;20046;-90
2022/11/06 03:19:34;;;;;;;22.05;11.60;;;;;;;7.07;82.03;100323.75;4926046;28;20517;-90
2022/11/06 03:22:09;;;;;;;29.25;12.85;;;;;;;7.13;81.79;100320.72;4951587;28;20050;-89
2022/11/06 03:24:44;;;;;;;20.98;11.15;;;;;;;7.05;81.40;100319.53;4934058;28;20057;-90
2022/11/06 03:27:19;;;;;;;20.20;12.00;;;;;;;7.06;82.31;100329.13;4987880;28;20054;-88
2022/11/06 03:29:48;;;;;;;21.95;12.20;;;;;;;7.02;82.42;100325.88;4928384;28;20483;-89
2022/11/06 03:32:32;;;;;;;24.42;12.70;;;;;;;6.96;82.43;100316.53;4952730;28;20093;-89
2022/11/06 03:35:05;;;;;;;27.75;12.23;;;;;;;7.04;82.04;100317.81;4905966;28;20057;-89
2022/11/06 03:37:38;;;;;;;27.10;11.75;;;;;;;7.00;82.28;100314.56;4955939;28;20046;-90
2022/11/06 03:40:08;;;;;;;21.17;11.15;;;;;;;6.96;82.18;100326.25;4971753;28;20050;-91
2022/11/06 03:42:36;;;;;;;22.98;11.85;;;;;;;6.97;82.41;100317.38;4968292;28;20409;-89
2022/11/06 03:45:06;;;;;;;21.08;12.38;;;;;;;7.01;81.97;100307.47;4989346;28;20441;-89
2022/11/06 03:47:48;;;;;;;19.13;11.00;;;;;;;6.90;82.10;100300.25;4972078;28;20046;-88
2022/11/06 03:50:16;;;;;;;19.38;11.45;;;;;;;7.02;82.19;100298.59;4924264;28;20046;-89
2022/11/06 03:52:48;;;;;;;23.48;11.48;;;;;;;6.96;81.64;100299.84;4980011;28;20493;-89
2022/11/06 03:55:21;;;;;;;25.77;11.20;;;;;;;6.88;81.52;100299.50;4967707;28;20366;-89
2022/11/06 03:57:52;;;;;;;22.15;12.38;;;;;;;6.97;81.75;100306.81;4965639;28;20050;-88
2022/11/06 04:00:19;;;;;;;21.00;11.38;;;;;;;6.95;81.84;100300.81;4917191;28;20047;-89
2022/11/06 04:02:50;;;;;;;22.25;11.50;;;;;;;6.88;81.82;100296.88;4920366;28;20074;-89
2022/11/06 04:05:21;;;;;;;21.17;11.25;;;;;;;6.90;81.93;100302.91;4971876;28;20046;-89
2022/11/06 04:16:17;;;;;;;23.73;12.60;;;;;;;6.86;82.23;100280.28;4955869;28;20072;-89
2022/11/06 04:18:43;;;;;;;21.83;12.32;;;;;;;6.92;81.91;100274.59;4970740;28;20113;-90
2022/11/06 04:21:28;;;;;;;21.85;12.02;;;;;;;6.69;81.91;100278.72;4955737;28;20046;-90
2022/11/06 04:27:17;;;;;;;23.92;11.85;;;;;;;6.71;82.09;100272.41;4927692;28;20061;-90
2022/11/06 04:30:01;;;;;;;24.75;12.52;;;;;;;6.78;82.71;100279.94;4970779;28;20037;-89
2022/11/06 04:32:43;;;;;;;30.48;14.23;;;;;;;6.72;82.85;100276.75;4957416;28;20050;-89
2022/11/06 04:35:22;;;;;;;22.08;11.77;;;;;;;6.69;82.70;100276.09;4970543;28;20548;-89
2022/11/06 04:38:15;;;;;;;21.25;12.23;;;;;;;6.81;82.25;100272.66;4984682;28;24764;-91
2022/11/06 04:41:11;;;;;;;27.17;12.65;;;;;;;6.66;82.45;100266.59;4931566;28;20683;-89
2022/11/06 04:43:49;;;;;;;22.25;12.57;;;;;;;6.79;82.95;100269.25;4934951;28;20041;-89
2022/11/06 04:46:22;;;;;;;33.95;13.15;;;;;;;6.81;82.79;100270.00;4983852;28;20039;-90
2022/11/06 04:48:49;;;;;;;23.67;11.75;;;;;;;6.79;83.11;100264.00;4953484;28;20050;-90
2022/11/06 04:51:20;;;;;;;25.48;12.82;;;;;;;6.82;82.71;100249.75;4970528;28;20049;-89
2022/11/06 04:53:48;;;;;;;33.42;11.80;;;;;;;6.83;82.87;100246.19;4953677;28;20045;-89
2022/11/06 04:56:21;;;;;;;26.15;13.40;;;;;;;6.70;83.21;100259.34;4970204;28;20045;-89
2022/11/06 04:58:51;;;;;;;29.67;13.32;;;;;;;6.67;83.39;100249.81;4965825;28;20407;-90
2022/11/06 05:01:18;;;;;;;37.00;12.93;;;;;;;6.77;82.96;100247.44;4968951;28;20048;-89
2022/11/06 05:03:45;;;;;;;39.15;14.38;;;;;;;6.66;83.41;100252.56;4940200;28;20471;-90
2022/11/06 05:06:12;;;;;;;31.23;13.25;;;;;;;6.74;83.55;100252.88;4956445;28;20046;-89
2022/11/06 05:08:38;;;;;;;35.15;13.63;;;;;;;6.69;83.75;100270.81;4984038;28;20474;-88
2022/11/06 05:11:05;;;;;;;42.10;13.55;;;;;;;6.70;83.64;100278.66;4953508;28;20046;-89
2022/11/06 05:13:32;;;;;;;23.33;13.32;;;;;;;6.71;83.70;100279.50;4974715;28;20050;-89
2022/11/06 05:15:59;;;;;;;27.88;13.88;;;;;;;6.71;83.83;100280.31;4951934;28;20050;-89
2022/11/06 05:18:26;;;;;;;22.55;12.88;;;;;;;6.77;83.46;100279.09;4970798;28;20050;-89
2022/11/06 05:23:39;;;;;;;23.10;12.80;;;;;;;6.74;83.86;100260.81;4980885;28;20046;-89
2022/11/06 05:26:06;;;;;;;21.83;12.15;;;;;;;6.71;83.97;100264.50;4947954;28;21463;-89
2022/11/06 05:28:33;;;;;;;20.08;11.85;;;;;;;6.71;83.92;100261.84;4950528;28;20065;-90
2022/11/06 05:30:59;;;;;;;22.35;11.90;;;;;;;6.72;83.40;100257.44;4920418;28;20372;-89
2022/11/06 05:33:26;;;;;;;23.45;12.50;;;;;;;6.65;83.71;100270.19;4952142;28;20059;-89
2022/11/06 05:35:53;;;;;;;21.63;11.77;;;;;;;6.67;83.58;100268.28;4954385;28;20050;-90
2022/11/06 05:38:20;;;;;;;19.42;11.32;;;;;;;6.72;83.33;100282.03;4943635;28;20537;-89
2022/11/06 05:40:46;;;;;;;21.02;11.88;;;;;;;6.67;83.66;100284.13;4945371;28;20043;-89
2022/11/06 05:43:13;;;;;;;20.33;11.23;;;;;;;6.66;84.14;100277.13;4940148;28;20046;-89
2022/11/06 05:45:40;;;;;;;23.08;13.48;;;;;;;6.65;84.48;100272.81;4911429;28;20054;-88
2022/11/06 05:48:06;;;;;;;21.77;12.52;;;;;;;6.66;84.29;100271.03;4943411;28;20046;-88
2022/11/06 05:50:33;;;;;;;20.92;12.38;;;;;;;6.78;83.96;100269.38;4956590;28;20387;-90
2022/11/06 05:53:03;;;;;;;25.80;12.85;;;;;;;6.73;84.25;100259.97;4949147;28;20050;-89
2022/11/06 05:55:29;;;;;;;24.98;12.68;;;;;;;6.76;84.07;100252.78;4964009;28;20379;-89
2022/11/06 05:57:56;;;;;;;21.33;12.40;;;;;;;6.76;84.32;100243.09;4940435;28;20506;-89
2022/11/06 06:00:23;;;;;;;26.30;11.35;;;;;;;6.85;83.47;100234.56;4973503;28;20046;-89
2022/11/06 06:02:50;;;;;;;23.25;12.55;;;;;;;6.76;83.60;100237.81;4989542;28;20046;-88
2022/11/06 06:05:17;;;;;;;21.85;11.93;;;;;;;6.75;84.01;100238.75;4970495;28;20050;-88
2022/11/06 06:07:43;;;;;;;23.48;11.90;;;;;;;6.74;84.26;100252.88;4932401;28;20399;-88
2022/11/06 06:10:10;;;;;;;18.58;11.55;;;;;;;6.70;84.11;100254.91;4939863;28;20046;-89
2022/11/06 06:12:38;;;;;;;19.80;11.75;;;;;;;6.72;84.21;100254.81;4923879;28;20066;-88
2022/11/06 06:15:07;;;;;;;21.33;12.52;;;;;;;6.70;84.48;100252.25;4938674;28;20043;-90
2022/11/06 06:17:34;;;;;;;25.08;12.95;;;;;;;6.68;83.97;100242.75;4950317;28;20047;-89
2022/11/06 06:20:01;;;;;;;22.90;11.77;;;;;;;6.65;84.59;100232.41;4939749;28;20043;-89
2022/11/06 06:22:27;;;;;;;25.50;12.13;;;;;;;6.70;84.49;100223.22;4940055;28;20047;-89
2022/11/06 06:24:54;;;;;;;23.95;13.10;;;;;;;6.69;84.96;100223.31;4950741;28;20757;-89
2022/11/06 06:27:21;;;;;;;27.23;13.30;;;;;;;6.72;84.66;100223.97;4971990;28;20050;-88
2022/11/06 06:29:51;;;;;;;24.25;11.98;;;;;;;6.68;84.63;100226.91;4976004;28;20053;-90
2022/11/06 06:32:18;;;;;;;25.55;12.77;;;;;;;6.65;84.63;100241.16;4980519;28;20474;-89
2022/11/06 06:34:44;;;;;;;23.90;12.98;;;;;;;6.67;84.89;100244.53;4967717;28;20045;-90
2022/11/06 06:37:11;;;;;;;20.63;12.13;;;;;;;6.69;84.32;100237.38;4943253;28;20450;-89
2022/11/06 06:39:43;;;;;;;29.10;11.75;;;;;;;6.69;84.36;100244.44;4987386;28;20053;-89
2022/11/06 06:42:10;;;;;;;26.70;13.10;;;;;;;6.63;84.67;100240.41;4968294;28;20042;-89
2022/11/06 06:44:37;;;;;;;26.40;12.32;;;;;;;6.62;84.78;100238.72;4988452;28;20505;-87
2022/11/06 06:47:03;;;;;;;25.42;11.95;;;;;;;6.63;85.34;100240.41;4968654;28;20553;-89
2022/11/06 06:49:30;;;;;;;21.92;11.85;;;;;;;6.65;85.17;100232.41;4966896;28;20063;-90
2022/11/06 06:51:57;;;;;;;23.67;13.27;;;;;;;6.68;85.01;100219.84;4956109;28;20543;-88
2022/11/06 06:54:23;;;;;;;22.83;12.02;;;;;;;6.64;85.37;100217.50;4969319;28;20053;-89
2022/11/06 06:56:50;;;;;;;25.70;12.05;;;;;;;6.74;84.38;100208.88;4955501;28;20053;-89
2022/11/06 06:59:17;;;;;;;23.38;11.93;;;;;;;6.70;84.40;100204.75;4949383;28;20051;-89
2022/11/06 07:01:44;;;;;;;22.08;11.25;;;;;;;6.71;84.02;100201.16;4956612;28;20043;-89
2022/11/06 07:04:11;;;;;;;22.23;11.35;;;;;;;6.64;83.84;100191.97;4957627;28;20046;-89
2022/11/06 07:06:37;;;;;;;23.40;11.98;;;;;;;6.64;83.33;100183.19;4975435;28;20062;-89
2022/11/06 07:09:04;;;;;;;21.88;10.70;;;;;;;6.62;83.45;100183.31;4992245;28;20046;-89
2022/11/06 07:11:31;;;;;;;19.77;11.27;;;;;;;6.70;83.51;100186.28;4957169;28;20048;-89
2022/11/06 07:13:57;;;;;;;18.50;10.93;;;;;;;6.69;83.64;100176.69;4957994;28;20054;-89
2022/11/06 07:16:26;;;;;;;25.23;12.70;;;;;;;6.58;84.13;100168.63;4971664;28;20069;-90
2022/11/06 07:18:53;;;;;;;22.73;11.95;;;;;;;6.63;84.39;100177.06;4975107;28;20038;-88
2022/11/06 07:21:19;;;;;;;19.33;10.88;;;;;;;6.63;84.48;100168.31;4992573;28;20127;-89
2022/11/06 07:23:46;;;;;;;15.35;9.70;;;;;;;6.70;83.93;100173.09;4988610;28;20506;-89
2022/11/06 07:26:13;;;;;;;19.00;10.57;;;;;;;6.65;83.97;100169.91;4988621;28;20120;-89
2022/11/06 07:28:39;;;;;;;20.75;10.65;;;;;;;6.63;84.40;100165.69;4957672;28;20046;-89
2022/11/06 07:31:07;;;;;;;18.75;10.73;;;;;;;6.69;84.00;100175.81;4969521;28;20097;-89
2022/11/06 07:33:34;;;;;;;18.60;11.05;;;;;;;6.67;84.41;100159.25;4967428;28;20402;-89
2022/11/06 07:36:03;;;;;;;17.40;9.80;;;;;;;6.64;84.03;100164.72;4964049;28;20054;-90
2022/11/06 07:38:32;;;;;;;18.52;10.63;;;;;;;6.53;84.20;100158.38;4956089;28;20039;-89
2022/11/06 07:41:08;;;;;;;17.75;9.93;;;;;;;6.55;84.37;100150.34;4979259;28;20053;-91
2022/11/06 07:43:34;;;;;;;17.17;10.20;;;;;;;6.63;84.62;100142.78;4989579;28;20064;-89
2022/11/06 07:46:03;;;;;;;19.42;10.35;;;;;;;6.61;84.13;100146.47;4971903;28;20038;-89
2022/11/06 07:48:31;;;;;;;16.33;10.02;;;;;;;6.59;84.31;100138.66;4962693;28;20102;-89
2022/11/06 07:51:02;;;;;;;15.88;9.75;;;;;;;6.63;83.85;100126.09;4971635;28;20050;-89
2022/11/06 07:53:28;;;;;;;13.85;9.13;;;;;;;6.64;84.16;100120.72;4972015;28;20464;-91
2022/11/06 07:55:56;;;;;;;15.90;9.23;;;;;;;6.61;83.85;100123.56;4977420;28;20949;-89
2022/11/06 07:58:23;;;;;;;14.95;9.00;;;;;;;6.60;84.10;100121.88;4967737;28;20038;-89
2022/11/06 08:00:52;;;;;;;14.77;9.38;;;;;;;6.60;84.30;100119.25;4987412;28;20049;-90
2022/11/06 08:03:19;;;;;;;15.55;9.02;;;;;;;6.61;83.38;100120.91;4970355;28;20482;-90
2022/11/06 08:05:46;;;;;;;17.13;10.40;;;;;;;6.57;84.11;100130.00;4975930;28;20042;-88
2022/11/06 08:08:12;;;;;;;14.88;9.48;;;;;;;6.52;83.66;100126.81;4972546;28;20457;-89
2022/11/06 08:10:42;;;;;;;18.38;8.85;;;;;;;6.50;83.99;100131.34;4972389;28;20045;-89
2022/11/06 08:13:10;;;;;;;16.83;8.88;;;;;;;6.47;83.42;100127.13;4988832;28;20469;-89
2022/11/06 08:15:37;;;;;;;15.23;9.07;;;;;;;6.51;83.57;100114.56;4986610;28;20440;-89
2022/11/06 08:18:05;;;;;;;17.42;9.45;;;;;;;6.46;83.55;100124.59;4969382;28;20046;-89
2022/11/06 08:20:31;;;;;;;18.75;10.57;;;;;;;6.51;83.46;100112.78;4972860;28;20042;-90
2022/11/06 08:23:03;;;;;;;19.02;10.27;;;;;;;6.47;83.05;100116.56;4947247;28;20042;-89
2022/11/06 08:25:30;;;;;;;16.45;9.20;;;;;;;6.49;83.40;100108.56;4971945;28;20101;-89
2022/11/06 08:27:58;;;;;;;13.55;9.00;;;;;;;6.49;83.59;100113.84;4953680;28;20050;-89
2022/11/06 08:30:25;;;;;;;12.70;8.77;;;;;;;6.57;83.37;100115.97;4969510;28;20498;-91
2022/11/06 08:32:52;;;;;;;12.80;8.70;;;;;;;6.61;83.29;100112.16;4958529;28;20078;-89
2022/11/06 08:35:19;;;;;;;14.80;8.43;;;;;;;6.67;82.95;100107.31;4969574;28;20049;-88
2022/11/06 08:37:46;;;;;;;11.90;7.93;;;;;;;6.69;82.49;100100.16;4946504;28;20046;-89
2022/11/06 08:40:12;;;;;;;14.55;8.00;;;;;;;6.66;82.03;100097.69;4984626;28;20104;-89
2022/11/06 08:42:39;;;;;;;11.57;7.50;;;;;;;6.68;81.93;100097.59;4976486;28;20050;-89
2022/11/06 08:45:06;;;;;;;11.82;7.80;;;;;;;6.63;82.35;100097.06;4940857;28;20052;-89
2022/11/06 08:47:33;;;;;;;10.57;7.30;;;;;;;6.67;82.72;100094.13;4972886;28;20080;-82
2022/11/06 08:50:00;;;;;;;9.75;6.75;;;;;;;6.75;82.51;100098.88;4993912;28;20102;-82
2022/11/06 08:52:26;;;;;;;13.20;7.55;;;;;;;6.79;82.35;100102.16;4986469;28;20125;-82
2022/11/06 08:54:59;;;;;;;13.93;8.35;;;;;;;6.80;82.32;100109.13;4969512;28;20039;-82
2022/11/06 08:57:27;;;;;;;11.30;8.15;;;;;;;6.87;82.07;100120.94;4949465;28;20216;-82
2022/11/06 08:59:53;;;;;;;13.00;7.60;;;;;;;6.86;82.28;100125.38;4983862;28;20058;-82
2022/11/06 09:02:20;;;;;;;12.48;7.82;;;;;;;6.92;82.07;100148.72;4987712;28;20042;-82
2022/11/06 09:04:47;;;;;;;16.55;8.77;;;;;;;6.87;82.68;100142.06;4986148;28;20046;-81
2022/11/06 09:07:14;;;;;;;14.80;8.05;;;;;;;6.97;82.49;100143.13;4989854;28;20039;-82
2022/11/06 09:09:41;;;;;;;13.45;8.02;;;;;;;6.96;82.72;100137.00;4985618;28;20092;-81
2022/11/06 09:12:08;;;;;;;12.00;8.30;;;;;;;7.11;82.83;100137.75;4987484;28;20077;-82
2022/11/06 09:14:35;;;;;;;12.02;8.07;;;;;;;7.14;83.15;100141.97;4988960;28;20487;-82
2022/11/06 09:17:01;;;;;;;13.23;8.25;;;;;;;7.23;82.98;100140.50;4970045;28;20494;-81
2022/11/06 09:19:28;;;;;;;13.88;8.10;;;;;;;7.25;82.64;100131.50;4969897;28;20069;-82
2022/11/06 09:21:55;;;;;;;13.95;9.05;;;;;;;7.31;82.86;100122.31;4983562;28;20074;-82
2022/11/06 09:24:21;;;;;;;12.23;8.30;;;;;;;7.36;82.17;100112.25;4989196;28;20050;-82
2022/11/06 09:27:08;;;;;;;13.30;8.40;;;;;;;7.40;82.44;100103.16;4984789;28;20574;-82
2022/11/06 09:29:39;;;;;;;17.17;8.07;;;;;;;7.42;82.11;100103.06;4968831;28;20121;-82
2022/11/06 09:32:06;;;;;;;10.02;7.00;;;;;;;7.43;82.54;100108.25;4969143;28;20544;-82
2022/11/06 09:34:33;;;;;;;12.32;7.57;;;;;;;7.47;82.82;100095.66;4984734;28;20046;-82
2022/11/06 09:37:01;;;;;;;12.75;7.63;;;;;;;7.48;83.02;100089.38;4997755;28;20387;-82
2022/11/06 09:39:28;;;;;;;12.85;8.52;;;;;;;7.54;82.60;100079.25;4970412;28;20048;-82
2022/11/06 09:42:00;;;;;;;13.30;8.38;;;;;;;7.50;83.35;100077.75;4968111;28;20124;-82
2022/11/06 09:44:45;;;;;;;13.32;9.02;;;;;;;7.42;83.14;100079.28;4965008;28;20043;-82
2022/11/06 09:47:19;;;;;;;13.48;8.27;;;;;;;7.54;82.93;100066.03;4990271;28;20052;-82
2022/11/06 09:49:51;;;;;;;15.20;8.23;;;;;;;7.54;82.93;100070.47;4970295;28;20058;-82
2022/11/06 09:52:25;;;;;;;13.48;8.68;;;;;;;7.56;82.88;100072.06;4965301;28;20050;-82
2022/11/06 09:54:55;;;;;;;12.23;8.02;;;;;;;7.63;82.61;100069.78;4969033;28;20486;-82
2022/11/06 09:57:33;;;;;;;13.55;7.80;;;;;;;7.66;82.67;100052.88;4979632;28;20042;-82
2022/11/06 10:00:01;;;;;;;18.38;9.15;;;;;;;7.71;82.92;100056.03;4964211;28;20050;-84
2022/11/06 10:02:39;;;;;;;14.10;8.93;;;;;;;7.75;82.55;100045.13;4987409;28;20058;-84
2022/11/06 10:05:21;;;;;;;16.33;10.30;;;;;;;7.75;82.82;100042.47;4988627;28;20046;-85
2022/11/06 10:07:50;;;;;;;15.95;9.50;;;;;;;7.89;83.02;100041.47;4980783;28;20054;-84
2022/11/06 10:10:18;;;;;;;16.33;9.77;;;;;;;7.95;82.93;100032.22;5005731;28;20054;-85
2022/11/06 10:13:19;;;;;;;14.27;8.50;;;;;;;7.93;82.36;100016.47;4973592;28;20072;-84
2022/11/06 10:15:45;;;;;;;13.93;8.15;;;;;;;8.03;82.84;100012.19;4965299;28;20530;-85
2022/11/06 10:18:24;;;;;;;11.93;8.45;;;;;;;8.07;82.59;100012.81;4983359;28;20474;-84
2022/11/06 10:20:52;;;;;;;11.63;7.00;;;;;;;8.18;82.50;100001.41;4966304;28;20462;-84
2022/11/06 10:23:28;;;;;;;12.35;7.47;;;;;;;8.25;82.20;99995.53;4946295;28;20174;-84
2022/11/06 10:26:24;;;;;;;11.10;7.38;;;;;;;8.34;82.52;99982.56;4961776;28;20054;-81
2022/11/06 10:29:15;;;;;;;11.52;6.38;;;;;;;8.40;82.23;99976.84;4924366;28;20375;-82
2022/11/06 10:32:33;;;;;;;10.80;6.57;;;;;;;8.32;81.37;99965.97;4981359;28;20520;-85
2022/11/06 10:35:04;;;;;;;10.23;7.18;;;;;;;8.45;81.57;99959.66;4889742;28;20097;-84
2022/11/06 10:37:34;;;;;;;12.52;7.43;;;;;;;8.51;81.63;99954.84;4987067;28;20073;-84
2022/11/06 10:40:04;;;;;;;14.90;6.90;;;;;;;8.56;81.85;99944.72;4985171;28;20449;-85
2022/11/06 10:42:35;;;;;;;12.98;6.95;;;;;;;8.59;81.87;99931.25;4986120;28;20371;-84
2022/11/06 10:45:14;;;;;;;11.02;7.55;;;;;;;8.57;81.94;99928.72;4990195;28;20101;-85
2022/11/06 10:47:42;;;;;;;12.10;7.50;;;;;;;8.64;82.29;99929.09;5001264;28;20051;-84
2022/11/06 10:50:14;;;;;;;19.70;9.07;;;;;;;8.65;81.99;99918.38;4972150;28;20202;-85
2022/11/06 10:52:46;;;;;;;15.15;7.32;;;;;;;8.72;81.76;99916.06;4975025;28;20046;-86
2022/11/06 10:55:28;;;;;;;13.18;8.25;;;;;;;8.74;82.00;99908.03;4986676;28;20093;-85
2022/11/06 10:58:02;;;;;;;14.60;7.97;;;;;;;8.78;81.90;99886.47;4995717;28;20047;-84
2022/11/06 11:00:30;;;;;;;12.02;7.18;;;;;;;8.84;82.08;99890.44;4980491;28;20047;-85
2022/11/06 11:02:59;;;;;;;14.43;8.05;;;;;;;8.87;82.07;99893.66;4986132;28;20058;-86
2022/11/06 11:05:37;;;;;;;13.63;8.75;;;;;;;8.89;81.95;99883.81;4990620;28;20074;-85
2022/11/06 11:08:04;;;;;;;16.45;8.80;;;;;;;8.93;82.08;99879.13;5002380;28;20057;-85
2022/11/06 11:10:34;;;;;;;15.63;8.40;;;;;;;8.96;81.87;99872.72;4987674;28;20043;-85
2022/11/06 11:13:03;;;;;;;18.15;8.90;;;;;;;8.99;81.80;99867.19;4973261;28;20046;-84
2022/11/06 11:15:47;;;;;;;15.60;9.18;;;;;;;8.98;82.16;99854.88;4989773;28;20634;-86
2022/11/06 11:18:16;;;;;;;17.85;8.05;;;;;;;9.05;82.13;99862.19;4994138;28;20049;-86
2022/11/06 11:20:47;;;;;;;12.05;8.05;;;;;;;9.07;82.03;99854.97;4987620;28;20544;-85
2022/11/06 11:23:23;;;;;;;16.77;8.68;;;;;;;9.08;81.86;99855.81;4986315;28;20466;-84
2022/11/06 11:25:52;;;;;;;12.73;7.60;;;;;;;9.13;81.79;99838.59;4983465;28;20043;-85
2022/11/06 11:28:31;;;;;;;13.65;7.45;;;;;;;9.10;81.65;99843.28;4987127;28;20074;-85
2022/11/06 11:31:13;;;;;;;14.13;7.13;;;;;;;9.12;81.87;99828.13;4979408;28;20567;-85
2022/11/06 11:33:46;;;;;;;12.52;7.40;;;;;;;9.20;81.90;99830.97;5006910;28;20510;-85
2022/11/06 11:36:13;;;;;;;12.80;7.20;;;;;;;9.26;82.04;99829.59;4987237;28;20054;-83
2022/11/06 11:38:41;;;;;;;17.45;8.20;;;;;;;9.30;82.08;99828.41;4986670;28;20052;-85
2022/11/06 11:41:13;;;;;;;15.05;7.72;;;;;;;9.30;82.01;99826.59;4989955;28;20042;-84
2022/11/06 11:43:41;;;;;;;9.73;6.95;;;;;;;9.37;81.79;99826.09;4968229;28;20049;-84
2022/11/06 11:46:07;;;;;;;15.77;7.28;;;;;;;9.39;81.97;99816.19;4983041;28;20078;-84
2022/11/06 11:48:42;;;;;;;13.40;6.50;;;;;;;9.39;81.25;99810.88;4982656;28;20033;-85
2022/11/06 11:51:22;;;;;;;12.98;6.78;;;;;;;9.42;81.64;99808.00;4989100;28;20688;-85
2022/11/06 11:53:49;;;;;;;13.60;7.22;;;;;;;9.48;81.68;99795.03;5001675;28;20041;-84
2022/11/06 11:56:18;;;;;;;13.82;6.43;;;;;;;9.51;81.60;99789.47;4986538;28;20071;-84